Time;durP1;ratioP1;P1;durP2;ratioP2;P2;SDS_P1;SDS_P2;PMS_P1;PMS_P2;Temp;Humidity;BMP_temperature;BMP_pressure;BME280_temperature;BME280_humidity;BME280_pressure;Samples;Min_cycle;Max_cycle;Signal;HPM_P1;HPM_P2
2021/12/09 00:01:48;;;;;;;8.30;4.95;;;5.50;53.40;;;;;;4981821;28;20054;-82
2021/12/09 00:04:18;;;;;;;5.85;4.20;;;5.50;53.40;;;;;;4983306;28;20421;-82
2021/12/09 00:06:45;;;;;;;7.35;5.07;;;5.50;53.30;;;;;;4982158;28;20035;-81
2021/12/09 00:09:14;;;;;;;6.68;4.72;;;5.50;53.30;;;;;;4968171;28;20039;-81
2021/12/09 00:11:45;;;;;;;8.35;5.13;;;5.50;53.30;;;;;;4983866;28;20041;-82
2021/12/09 00:14:15;;;;;;;6.68;4.82;;;5.50;53.30;;;;;;4983701;28;20039;-81
2021/12/09 00:16:41;;;;;;;7.05;4.72;;;5.60;53.20;;;;;;4981626;28;21389;-81
2021/12/09 00:19:07;;;;;;;6.53;4.20;;;5.60;53.00;;;;;;4986850;28;20030;-80
2021/12/09 00:21:34;;;;;;;7.15;4.95;;;5.60;53.00;;;;;;4987357;28;20128;-80
2021/12/09 00:24:00;;;;;;;7.45;4.68;;;5.60;53.00;;;;;;4987408;28;20033;-81
2021/12/09 00:26:26;;;;;;;8.07;4.72;;;5.60;53.00;;;;;;4986772;28;20073;-81
2021/12/09 00:28:52;;;;;;;7.25;4.72;;;5.60;53.00;;;;;;4985903;28;20033;-82
2021/12/09 00:31:18;;;;;;;7.22;4.90;;;5.60;53.00;;;;;;4986325;28;20054;-81
2021/12/09 00:33:46;;;;;;;7.00;4.70;;;5.60;53.00;;;;;;4968448;28;20031;-81
2021/12/09 00:36:16;;;;;;;6.82;4.70;;;5.60;53.00;;;;;;4986056;28;20054;-81
2021/12/09 00:38:42;;;;;;;6.93;4.18;;;5.60;53.00;;;;;;4984978;28;20042;-81
2021/12/09 00:41:13;;;;;;;5.53;4.10;;;5.60;53.00;;;;;;4983948;28;20062;-81
2021/12/09 00:43:41;;;;;;;6.75;4.53;;;5.60;52.90;;;;;;4986085;28;20034;-81
2021/12/09 00:46:08;;;;;;;6.80;4.32;;;5.60;52.80;;;;;;4986425;28;20026;-83
2021/12/09 00:48:35;;;;;;;6.35;4.53;;;5.60;52.80;;;;;;4985683;28;20034;-82
2021/12/09 00:51:02;;;;;;;5.45;4.40;;;5.60;52.80;;;;;;4985130;28;20042;-83
2021/12/09 00:53:28;;;;;;;7.15;4.50;;;5.60;52.80;;;;;;4985799;28;20038;-83
2021/12/09 00:55:54;;;;;;;7.78;4.72;;;5.50;52.80;;;;;;4971956;28;20034;-82
2021/12/09 00:58:21;;;;;;;5.95;4.28;;;5.60;52.80;;;;;;4972299;28;20089;-82
2021/12/09 01:00:47;;;;;;;8.45;4.15;;;5.50;52.80;;;;;;4984389;28;20419;-82
2021/12/09 01:03:15;;;;;;;7.00;4.80;;;5.60;52.80;;;;;;4986899;28;20073;-83
2021/12/09 01:05:43;;;;;;;6.57;4.43;;;5.60;52.70;;;;;;4950728;28;20661;-83
2021/12/09 01:08:10;;;;;;;6.10;4.45;;;5.60;52.70;;;;;;4987135;28;20038;-83
2021/12/09 01:10:36;;;;;;;7.10;4.70;;;5.70;52.70;;;;;;4985150;28;20041;-83
2021/12/09 01:13:03;;;;;;;7.15;4.45;;;5.60;52.60;;;;;;4971341;28;20038;-81
2021/12/09 01:15:29;;;;;;;7.63;4.10;;;5.70;52.60;;;;;;4985225;28;20042;-82
2021/12/09 01:17:56;;;;;;;6.45;4.15;;;5.70;52.50;;;;;;4987086;28;20117;-82
2021/12/09 01:20:27;;;;;;;5.53;3.95;;;5.70;52.40;;;;;;4970838;28;20038;-82
2021/12/09 01:22:54;;;;;;;6.75;4.10;;;5.80;52.30;;;;;;4987163;28;20452;-82
2021/12/09 01:25:22;;;;;;;6.55;4.22;;;5.80;52.20;;;;;;4986025;28;20034;-83
2021/12/09 01:27:49;;;;;;;5.43;4.10;;;5.80;52.10;;;;;;4985916;28;20046;-83
2021/12/09 01:30:18;;;;;;;6.20;4.10;;;5.80;52.10;;;;;;4983851;28;20041;-82
2021/12/09 01:32:51;;;;;;;6.55;4.30;;;5.80;52.20;;;;;;4984736;28;20034;-82
2021/12/09 01:35:21;;;;;;;6.82;4.20;;;5.80;52.10;;;;;;4982942;28;20504;-83
2021/12/09 01:37:48;;;;;;;8.18;4.65;;;5.80;52.10;;;;;;4984869;28;20121;-82
2021/12/09 01:40:15;;;;;;;6.75;4.63;;;5.80;52.00;;;;;;4983771;28;20030;-83
2021/12/09 01:42:42;;;;;;;7.00;4.50;;;5.80;52.00;;;;;;4984995;28;20030;-83
2021/12/09 01:45:08;;;;;;;5.72;4.40;;;5.80;52.10;;;;;;4984262;28;20053;-83
2021/12/09 01:47:35;;;;;;;7.47;4.18;;;5.80;51.90;;;;;;4985679;28;20042;-83
2021/12/09 01:50:00;;;;;;;6.72;4.47;;;5.80;51.80;;;;;;4984732;28;20066;-83
2021/12/09 01:52:26;;;;;;;6.70;4.68;;;5.70;51.80;;;;;;4984194;28;20441;-83
2021/12/09 01:54:52;;;;;;;6.78;4.40;;;5.80;52.00;;;;;;4985592;28;20171;-84
2021/12/09 01:57:19;;;;;;;6.35;4.05;;;5.80;51.90;;;;;;4982109;28;20105;-83
2021/12/09 01:59:46;;;;;;;7.60;4.70;;;5.80;51.80;;;;;;4982989;28;20030;-83
2021/12/09 02:02:12;;;;;;;6.22;4.18;;;5.80;51.80;;;;;;4986046;28;20153;-83
2021/12/09 02:04:38;;;;;;;6.63;4.05;;;5.80;51.90;;;;;;4982858;28;20429;-84
2021/12/09 02:07:04;;;;;;;8.55;4.47;;;5.80;51.90;;;;;;4985674;28;20038;-83
2021/12/09 02:09:30;;;;;;;5.93;3.72;;;5.80;51.90;;;;;;4982999;28;20031;-83
2021/12/09 02:11:56;;;;;;;6.78;4.57;;;5.80;51.90;;;;;;4982805;28;20041;-83
2021/12/09 02:14:22;;;;;;;8.13;4.30;;;5.90;51.80;;;;;;4970486;28;20042;-83
2021/12/09 02:16:48;;;;;;;6.38;3.80;;;5.90;51.80;;;;;;4984166;28;20531;-83
2021/12/09 02:19:14;;;;;;;7.28;4.40;;;5.90;51.70;;;;;;4982565;28;20031;-83
2021/12/09 02:21:41;;;;;;;6.30;4.25;;;5.90;51.60;;;;;;4970752;28;20045;-83
2021/12/09 02:24:11;;;;;;;6.75;4.10;;;5.90;51.60;;;;;;4984351;28;20038;-83
2021/12/09 02:26:44;;;;;;;6.20;4.22;;;5.90;51.60;;;;;;4981967;28;20034;-83
2021/12/09 02:29:13;;;;;;;6.95;4.55;;;5.90;51.60;;;;;;4985851;28;20504;-83
2021/12/09 02:31:39;;;;;;;7.93;4.28;;;5.90;51.40;;;;;;4966050;28;20050;-83
2021/12/09 02:34:06;;;;;;;7.15;4.78;;;5.90;51.40;;;;;;4976189;28;20058;-80
2021/12/09 02:36:37;;;;;;;8.15;4.95;;;6.00;51.40;;;;;;4980673;28;20473;-81
2021/12/09 02:39:06;;;;;;;5.93;3.90;;;6.00;51.50;;;;;;4964399;28;20035;-81
2021/12/09 02:41:33;;;;;;;6.03;3.88;;;5.90;51.30;;;;;;4963209;28;20486;-81
2021/12/09 02:44:03;;;;;;;5.28;3.90;;;5.90;51.30;;;;;;4964768;28;20038;-81
2021/12/09 02:46:35;;;;;;;6.40;4.18;;;5.90;51.30;;;;;;4964356;28;20093;-80
2021/12/09 02:49:07;;;;;;;6.28;4.45;;;5.90;51.30;;;;;;4964728;28;20150;-81
2021/12/09 02:51:34;;;;;;;7.45;4.78;;;5.90;51.30;;;;;;4965540;28;20517;-81
2021/12/09 02:54:00;;;;;;;7.57;4.20;;;5.90;51.20;;;;;;4964628;28;20058;-80
2021/12/09 02:56:25;;;;;;;7.63;4.13;;;5.90;51.20;;;;;;4964456;28;20035;-81
2021/12/09 02:58:51;;;;;;;6.78;3.92;;;5.90;51.20;;;;;;4960200;28;20031;-81
2021/12/09 03:01:22;;;;;;;8.05;5.07;;;5.90;51.20;;;;;;4964922;28;20039;-82
2021/12/09 03:03:51;;;;;;;6.65;4.32;;;5.90;51.30;;;;;;4966767;28;20031;-82
2021/12/09 03:06:20;;;;;;;7.22;4.43;;;6.00;51.20;;;;;;4964747;28;20057;-82
2021/12/09 03:08:46;;;;;;;6.50;4.32;;;6.00;51.10;;;;;;4962698;28;20572;-81
2021/12/09 03:11:20;;;;;;;9.00;4.97;;;6.00;51.00;;;;;;4963712;28;20042;-82
2021/12/09 03:13:48;;;;;;;7.60;4.38;;;6.10;51.00;;;;;;4964621;28;20031;-82
2021/12/09 03:16:14;;;;;;;7.35;4.97;;;6.10;50.80;;;;;;4978937;28;20405;-82
2021/12/09 03:18:47;;;;;;;7.65;4.20;;;6.10;50.80;;;;;;4963381;28;20035;-82
2021/12/09 03:21:19;;;;;;;9.57;4.88;;;6.10;50.70;;;;;;4965004;28;20043;-82
2021/12/09 03:23:46;;;;;;;8.32;5.13;;;6.10;50.50;;;;;;4961901;28;20030;-82
2021/12/09 03:26:13;;;;;;;8.90;4.95;;;6.20;50.50;;;;;;4963848;28;20047;-82
2021/12/09 03:28:39;;;;;;;7.55;4.57;;;6.20;50.50;;;;;;4976722;28;20053;-82
2021/12/09 03:31:05;;;;;;;7.68;4.75;;;6.10;50.40;;;;;;4971106;28;20105;-81
2021/12/09 03:33:31;;;;;;;7.80;4.65;;;6.10;50.40;;;;;;4982321;28;20568;-83
2021/12/09 03:35:59;;;;;;;7.53;4.70;;;6.10;50.40;;;;;;4983179;28;20045;-84
2021/12/09 03:38:25;;;;;;;8.27;4.80;;;6.10;50.40;;;;;;4980738;28;20066;-82
2021/12/09 03:40:51;;;;;;;7.72;4.93;;;6.20;50.30;;;;;;4982014;28;20037;-80
2021/12/09 03:43:21;;;;;;;8.82;5.30;;;6.10;50.30;;;;;;4980373;28;20034;-80
2021/12/09 03:45:54;;;;;;;8.07;4.93;;;6.10;50.40;;;;;;4983548;28;20042;-80
2021/12/09 03:48:28;;;;;;;8.75;5.13;;;6.10;50.40;;;;;;4982060;28;20037;-82
2021/12/09 03:50:55;;;;;;;7.88;5.07;;;6.10;50.30;;;;;;4984144;28;20037;-81
2021/12/09 03:53:21;;;;;;;7.35;4.63;;;6.10;50.50;;;;;;4981349;28;20520;-82
2021/12/09 03:55:48;;;;;;;8.90;5.38;;;6.10;50.50;;;;;;4963508;28;20514;-84
2021/12/09 03:58:14;;;;;;;9.27;5.28;;;6.10;50.60;;;;;;4978940;28;20069;-84
2021/12/09 04:00:40;;;;;;;6.80;4.90;;;6.10;50.70;;;;;;4988207;28;20417;-85
2021/12/09 04:03:07;;;;;;;7.93;5.07;;;6.10;50.70;;;;;;4989324;28;20557;-84
2021/12/09 04:05:33;;;;;;;8.48;4.88;;;6.20;50.70;;;;;;4984782;28;20536;-84
2021/12/09 04:07:59;;;;;;;8.13;5.25;;;6.20;50.60;;;;;;4983015;28;20062;-83
2021/12/09 04:10:26;;;;;;;8.77;5.03;;;6.20;50.50;;;;;;4983965;28;20035;-85
2021/12/09 04:12:52;;;;;;;8.77;5.18;;;6.30;50.50;;;;;;4984320;28;20121;-80
2021/12/09 04:15:18;;;;;;;7.85;4.88;;;6.30;50.40;;;;;;4984272;28;20080;-82
2021/12/09 04:17:44;;;;;;;9.45;5.38;;;6.30;50.20;;;;;;4984090;28;20027;-81
2021/12/09 04:20:11;;;;;;;9.07;4.93;;;6.30;50.10;;;;;;4983307;28;20089;-82
2021/12/09 04:22:37;;;;;;;8.38;5.13;;;6.30;50.10;;;;;;4981270;28;20061;-81
2021/12/09 04:25:05;;;;;;;9.85;5.93;;;6.30;49.90;;;;;;4983762;28;20804;-81
2021/12/09 04:27:31;;;;;;;10.88;5.47;;;6.30;50.00;;;;;;4982016;28;20034;-77
2021/12/09 04:29:57;;;;;;;7.57;4.82;;;6.30;50.00;;;;;;4982088;28;20042;-79
2021/12/09 04:32:23;;;;;;;8.80;5.03;;;6.30;50.00;;;;;;4981607;28;20038;-81
2021/12/09 04:34:53;;;;;;;7.82;4.75;;;6.30;50.00;;;;;;4980860;28;20128;-82
2021/12/09 04:37:19;;;;;;;7.22;4.90;;;6.30;49.90;;;;;;4982685;28;20105;-79
2021/12/09 04:39:46;;;;;;;8.77;5.55;;;6.30;49.90;;;;;;4982782;28;20027;-80
2021/12/09 04:42:12;;;;;;;8.38;5.47;;;6.30;49.80;;;;;;4982061;28;20038;-81
2021/12/09 04:44:38;;;;;;;8.10;5.18;;;6.30;49.90;;;;;;4981267;28;20045;-82
2021/12/09 04:47:04;;;;;;;8.55;4.70;;;6.30;49.80;;;;;;4981290;28;20038;-83
2021/12/09 04:49:30;;;;;;;7.50;5.05;;;6.30;50.00;;;;;;4981042;28;20034;-83
2021/12/09 04:51:59;;;;;;;7.72;4.78;;;6.30;50.10;;;;;;4982330;28;20077;-84
2021/12/09 04:54:26;;;;;;;8.85;5.13;;;6.20;49.90;;;;;;4982422;28;20747;-80
2021/12/09 04:56:52;;;;;;;7.30;4.50;;;6.20;50.00;;;;;;4981890;28;20030;-80
2021/12/09 04:59:19;;;;;;;7.88;4.80;;;6.20;50.10;;;;;;4981614;28;20038;-80
2021/12/09 05:01:49;;;;;;;7.70;4.85;;;6.20;50.00;;;;;;4983091;28;20165;-81
2021/12/09 05:04:16;;;;;;;9.73;5.15;;;6.30;50.10;;;;;;4983088;28;20066;-79
2021/12/09 05:06:42;;;;;;;6.68;4.57;;;6.30;50.10;;;;;;4985337;28;20034;-80
2021/12/09 05:09:15;;;;;;;8.77;4.95;;;6.40;50.10;;;;;;4983472;28;20039;-80
2021/12/09 05:14:07;;;;;;;9.63;5.45;;;6.40;50.20;;;;;;4983135;28;20045;-80
2021/12/09 05:16:33;;;;;;;9.40;5.10;;;6.40;50.20;;;;;;4984392;28;20034;-80
2021/12/09 05:18:59;;;;;;;7.45;5.00;;;6.50;50.40;;;;;;4985313;28;20030;-79
2021/12/09 05:21:36;;;;;;;8.10;4.95;;;6.50;50.90;;;;;;4987043;28;20437;-81
2021/12/09 05:24:03;;;;;;;8.70;5.20;;;6.40;50.50;;;;;;4984356;28;20066;-79
2021/12/09 05:26:35;;;;;;;8.27;4.90;;;6.40;50.50;;;;;;4984044;28;20113;-80
2021/12/09 05:29:01;;;;;;;7.90;4.50;;;6.50;50.50;;;;;;4985617;28;20413;-80
2021/12/09 05:34:14;;;;;;;9.25;5.38;;;6.40;50.60;;;;;;4985758;28;20038;-79
2021/12/09 05:36:40;;;;;;;8.35;4.72;;;6.30;50.90;;;;;;4983944;28;20073;-79
2021/12/09 05:39:09;;;;;;;7.60;4.85;;;6.30;51.00;;;;;;4982497;28;20054;-80
2021/12/09 05:41:36;;;;;;;7.03;4.63;;;6.30;51.10;;;;;;4984654;28;20081;-79
2021/12/09 05:44:05;;;;;;;8.15;4.88;;;6.30;51.20;;;;;;4984018;28;20034;-80
2021/12/09 05:46:34;;;;;;;8.10;4.82;;;6.30;51.10;;;;;;4984087;28;20077;-80
2021/12/09 05:49:00;;;;;;;8.05;4.97;;;6.30;51.20;;;;;;4984266;28;21118;-78
2021/12/09 05:51:26;;;;;;;8.80;5.13;;;6.30;51.30;;;;;;4982380;28;20044;-80
2021/12/09 05:53:55;;;;;;;6.53;4.60;;;6.20;51.30;;;;;;4983702;28;20030;-81
2021/12/09 05:56:21;;;;;;;10.80;5.25;;;6.20;51.20;;;;;;4970398;28;20559;-83
2021/12/09 05:58:47;;;;;;;8.57;4.72;;;6.30;51.40;;;;;;4984334;28;20433;-83
2021/12/09 06:01:14;;;;;;;7.68;4.95;;;6.30;51.30;;;;;;4986394;28;20034;-84
2021/12/09 06:03:40;;;;;;;7.35;4.88;;;6.30;51.20;;;;;;4976161;28;20034;-88
2021/12/09 06:06:07;;;;;;;7.82;5.00;;;6.30;50.90;;;;;;5001675;28;20049;-86
2021/12/09 06:08:36;;;;;;;6.55;4.10;;;6.40;50.80;;;;;;4996914;28;20034;-87
2021/12/09 06:11:03;;;;;;;7.95;5.40;;;6.40;50.80;;;;;;4966803;28;20041;-85
2021/12/09 06:13:31;;;;;;;7.00;4.30;;;6.40;50.70;;;;;;4984170;28;20038;-85
2021/12/09 06:15:57;;;;;;;7.53;4.90;;;6.50;50.60;;;;;;4978303;28;20042;-86
2021/12/09 06:18:23;;;;;;;7.93;5.20;;;6.50;50.50;;;;;;4984100;28;20039;-87
2021/12/09 06:20:50;;;;;;;8.30;5.18;;;6.60;50.40;;;;;;4982556;28;20037;-86
2021/12/09 06:23:16;;;;;;;9.45;5.47;;;6.60;50.50;;;;;;4982025;28;20038;-84
2021/12/09 06:25:42;;;;;;;7.43;4.60;;;6.60;50.40;;;;;;4984137;28;20532;-90
2021/12/09 06:28:08;;;;;;;8.57;4.78;;;6.60;50.20;;;;;;4983667;28;20035;-89
2021/12/09 06:30:34;;;;;;;6.50;4.72;;;6.70;50.20;;;;;;4986859;28;20088;-88
2021/12/09 06:33:01;;;;;;;7.10;4.65;;;6.60;50.20;;;;;;4985549;28;20417;-87
2021/12/09 06:35:27;;;;;;;8.10;4.95;;;6.60;50.20;;;;;;4983970;28;20030;-84
2021/12/09 06:37:56;;;;;;;8.05;4.60;;;6.60;50.10;;;;;;4983581;28;20038;-83
2021/12/09 06:40:23;;;;;;;7.40;4.75;;;6.60;50.00;;;;;;4985344;28;20034;-88
2021/12/09 06:42:51;;;;;;;7.38;4.53;;;6.60;50.20;;;;;;4982220;28;20168;-86
2021/12/09 06:45:19;;;;;;;7.60;5.20;;;6.60;50.20;;;;;;4973370;28;20053;-87
2021/12/09 06:47:46;;;;;;;5.82;4.20;;;6.60;50.20;;;;;;4988621;28;20619;-86
2021/12/09 06:50:15;;;;;;;6.93;4.72;;;6.60;50.10;;;;;;4970257;28;20042;-86
2021/12/09 06:52:41;;;;;;;8.02;4.60;;;6.60;50.00;;;;;;4968115;28;20386;-91
2021/12/09 06:55:13;;;;;;;7.53;4.38;;;6.60;50.10;;;;;;4974368;28;20542;-81
2021/12/09 06:57:42;;;;;;;6.75;4.55;;;6.50;50.00;;;;;;4988405;28;20038;-82
2021/12/09 07:00:11;;;;;;;7.00;4.25;;;6.40;51.20;;;;;;4992189;28;20117;-83
2021/12/09 07:02:37;;;;;;;5.68;3.85;;;6.50;53.40;;;;;;4992116;28;20054;-81
2021/12/09 07:05:05;;;;;;;8.43;3.83;;;6.50;55.00;;;;;;4988281;28;20077;-82
2021/12/09 07:07:31;;;;;;;4.90;3.60;;;6.50;56.40;;;;;;4991701;28;20041;-81
2021/12/09 07:09:57;;;;;;;9.43;4.00;;;6.60;57.50;;;;;;4967783;28;20031;-81
2021/12/09 07:12:23;;;;;;;7.03;3.85;;;6.70;58.80;;;;;;4988929;28;20042;-92
2021/12/09 07:14:49;;;;;;;6.60;3.63;;;6.80;59.70;;;;;;4994235;28;20112;-82
2021/12/09 07:17:16;;;;;;;6.35;3.45;;;6.90;60.70;;;;;;4991182;28;20089;-82
2021/12/09 07:19:42;;;;;;;7.15;3.38;;;7.00;61.40;;;;;;4987330;28;20038;-80
2021/12/09 07:22:08;;;;;;;7.50;3.30;;;7.00;62.00;;;;;;4984314;28;20030;-81
2021/12/09 07:24:35;;;;;;;6.82;3.60;;;7.10;62.20;;;;;;4993502;28;20144;-80
2021/12/09 07:27:01;;;;;;;8.35;4.35;;;7.20;62.30;;;;;;4983187;28;20390;-82
2021/12/09 07:29:28;;;;;;;8.52;4.07;;;7.30;62.50;;;;;;4982869;28;20042;-80
2021/12/09 07:31:54;;;;;;;6.32;3.75;;;7.30;62.40;;;;;;4967599;28;20061;-78
2021/12/09 07:34:21;;;;;;;11.23;3.83;;;7.40;62.40;;;;;;4981931;28;20088;-80
2021/12/09 07:36:47;;;;;;;5.38;3.70;;;7.50;62.30;;;;;;4983975;28;20041;-80
2021/12/09 07:39:13;;;;;;;6.65;3.40;;;7.50;62.30;;;;;;4983059;28;20042;-79
2021/12/09 07:41:39;;;;;;;7.00;3.65;;;7.60;62.30;;;;;;4983261;28;20038;-79
2021/12/09 07:44:06;;;;;;;7.65;3.70;;;7.60;62.10;;;;;;4984040;28;20030;-79
2021/12/09 07:46:34;;;;;;;7.65;4.15;;;7.70;62.00;;;;;;4980855;28;20042;-76
2021/12/09 07:49:00;;;;;;;5.00;3.70;;;7.70;61.90;;;;;;4980388;28;20790;-77
2021/12/09 07:51:25;;;;;;;6.35;3.47;;;7.80;61.70;;;;;;4982129;28;20045;-82
2021/12/09 07:53:52;;;;;;;7.10;4.30;;;7.80;61.60;;;;;;4981334;28;20069;-79
2021/12/09 07:56:18;;;;;;;5.75;3.85;;;7.80;61.30;;;;;;4982197;28;20133;-81
2021/12/09 07:58:44;;;;;;;6.57;4.50;;;7.90;60.00;;;;;;4981725;28;20038;-80
2021/12/09 08:01:11;;;;;;;8.70;4.68;;;8.00;58.50;;;;;;4982737;28;20038;-82
2021/12/09 08:03:38;;;;;;;6.93;4.53;;;7.90;57.40;;;;;;4983078;28;20036;-79
2021/12/09 08:06:04;;;;;;;9.05;5.18;;;7.90;56.40;;;;;;4979756;28;20077;-81
2021/12/09 08:08:30;;;;;;;8.73;5.07;;;7.90;55.70;;;;;;4981666;28;20043;-84
2021/12/09 08:10:56;;;;;;;5.80;4.60;;;7.90;55.10;;;;;;4981252;28;20440;-80
2021/12/09 08:13:23;;;;;;;6.68;4.97;;;7.90;54.70;;;;;;4980808;28;20034;-81
2021/12/09 08:15:50;;;;;;;8.15;5.18;;;7.90;54.30;;;;;;4980308;28;20100;-80
2021/12/09 08:20:48;;;;;;;7.20;4.97;;;7.80;53.70;;;;;;4980219;28;20087;-79
2021/12/09 08:23:14;;;;;;;7.80;4.60;;;7.90;53.40;;;;;;4981949;28;20452;-79
2021/12/09 08:25:43;;;;;;;9.30;5.25;;;7.80;53.10;;;;;;4980566;28;20035;-78
2021/12/09 08:28:09;;;;;;;8.75;5.65;;;7.80;52.90;;;;;;4980259;28;20038;-80
2021/12/09 08:30:38;;;;;;;9.80;5.00;;;7.80;52.70;;;;;;4982333;28;20148;-79
2021/12/09 08:33:05;;;;;;;6.43;4.88;;;7.80;52.50;;;;;;4981699;28;20038;-80
2021/12/09 08:35:33;;;;;;;6.80;4.88;;;7.80;52.40;;;;;;4980916;28;20034;-78
2021/12/09 08:37:58;;;;;;;6.60;4.72;;;7.80;52.10;;;;;;4980830;28;20054;-79
2021/12/09 08:40:26;;;;;;;6.82;4.75;;;7.70;52.00;;;;;;4985788;28;20085;-79
2021/12/09 08:42:53;;;;;;;10.38;5.03;;;7.70;51.90;;;;;;4968193;28;20030;-79
2021/12/09 08:45:20;;;;;;;7.53;5.07;;;7.70;51.80;;;;;;4986415;28;20034;-80
2021/12/09 08:47:48;;;;;;;9.13;5.20;;;7.70;51.70;;;;;;4985140;28;20034;-79
2021/12/09 08:50:18;;;;;;;7.18;5.03;;;7.70;51.90;;;;;;4986349;28;20034;-79
2021/12/09 08:52:46;;;;;;;7.57;5.22;;;7.60;51.50;;;;;;4984126;28;20378;-79
2021/12/09 08:55:12;;;;;;;7.88;5.22;;;7.70;51.40;;;;;;4985253;28;20071;-79
2021/12/09 08:57:39;;;;;;;9.25;5.60;;;7.60;51.30;;;;;;4986959;28;20038;-80
2021/12/09 09:00:09;;;;;;;7.60;5.40;;;7.60;51.40;;;;;;4982850;28;20465;-80
2021/12/09 09:02:36;;;;;;;7.85;5.25;;;7.60;51.30;;;;;;4986377;28;20438;-80
2021/12/09 09:05:04;;;;;;;9.55;5.75;;;7.50;51.30;;;;;;4984613;28;20035;-80
2021/12/09 09:07:30;;;;;;;8.68;5.38;;;7.50;51.20;;;;;;4983110;28;20034;-79
2021/12/09 09:09:55;;;;;;;9.20;5.78;;;7.50;51.10;;;;;;4984527;28;20601;-77
2021/12/09 09:12:21;;;;;;;8.52;5.18;;;7.50;51.00;;;;;;4985562;28;20033;-78
2021/12/09 09:14:47;;;;;;;8.60;5.63;;;7.50;50.90;;;;;;4985726;28;20034;-78
2021/12/09 09:17:13;;;;;;;9.35;4.70;;;7.50;50.90;;;;;;4986503;28;20046;-77
2021/12/09 09:19:39;;;;;;;10.27;5.20;;;7.50;50.90;;;;;;4986496;28;20041;-79
2021/12/09 09:22:06;;;;;;;9.10;5.32;;;7.50;52.40;;;;;;4983850;28;20355;-79
2021/12/09 09:24:33;;;;;;;12.52;4.93;;;7.50;54.30;;;;;;4983055;28;20539;-80
2021/12/09 09:26:59;;;;;;;6.93;4.32;;;7.60;55.80;;;;;;4984429;28;20034;-79
2021/12/09 09:29:25;;;;;;;9.70;4.53;;;7.60;57.10;;;;;;4983985;28;20088;-78
2021/12/09 09:31:52;;;;;;;9.02;5.15;;;7.60;58.00;;;;;;4984682;28;20046;-78
2021/12/09 09:34:18;;;;;;;8.55;4.97;;;7.70;58.60;;;;;;4984136;28;20031;-77
2021/12/09 09:36:44;;;;;;;11.60;5.25;;;7.70;58.80;;;;;;4984124;28;20053;-79
2021/12/09 09:39:18;;;;;;;7.30;4.43;;;7.70;58.90;;;;;;4984768;28;20043;-79
2021/12/09 09:41:58;;;;;;;10.50;5.18;;;7.80;59.00;;;;;;4985492;28;20038;-79
2021/12/09 09:44:30;;;;;;;10.25;5.45;;;7.70;59.40;;;;;;4984127;28;20134;-78
2021/12/09 09:46:58;;;;;;;6.82;4.75;;;7.80;59.30;;;;;;4985371;28;20480;-80
2021/12/09 09:49:25;;;;;;;9.88;5.10;;;7.90;59.20;;;;;;4980126;28;20034;-83
2021/12/09 09:51:51;;;;;;;6.97;4.63;;;7.90;59.30;;;;;;4983034;28;20030;-78
2021/12/09 09:54:17;;;;;;;7.38;4.88;;;7.90;59.20;;;;;;4982987;28;20054;-81
2021/12/09 09:56:44;;;;;;;8.70;4.80;;;7.90;58.90;;;;;;4984224;28;20404;-81
2021/12/09 09:59:12;;;;;;;11.02;5.40;;;7.50;56.80;;;;;;4984000;28;20035;-80
2021/12/09 10:01:40;;;;;;;10.90;5.80;;;7.10;54.20;;;;;;4985505;28;20046;-82
2021/12/09 10:04:12;;;;;;;8.52;5.38;;;6.80;53.10;;;;;;4981478;28;20172;-80
2021/12/09 10:06:42;;;;;;;9.55;5.80;;;6.70;52.10;;;;;;4986051;28;20444;-80
2021/12/09 10:09:09;;;;;;;8.98;6.10;;;6.50;51.50;;;;;;4982604;28;20034;-82
2021/12/09 10:11:35;;;;;;;9.45;5.68;;;6.40;51.30;;;;;;4982472;28;20192;-80
2021/12/09 10:14:29;;;;;;;10.63;5.97;;;6.20;50.60;;;;;;4970873;28;20386;-81
2021/12/09 10:17:08;;;;;;;10.98;6.60;;;6.20;49.20;;;;;;4981510;28;20069;-80
2021/12/09 10:19:40;;;;;;;10.10;6.28;;;6.00;49.40;;;;;;4983671;28;20096;-81
2021/12/09 10:22:17;;;;;;;9.07;5.88;;;6.10;48.90;;;;;;4982973;28;20069;-84
2021/12/09 10:24:44;;;;;;;9.38;5.97;;;6.00;48.40;;;;;;4984592;28;20034;-82
2021/12/09 10:27:24;;;;;;;8.30;6.05;;;5.90;48.30;;;;;;4984619;28;20071;-82
2021/12/09 10:29:56;;;;;;;10.60;6.05;;;5.80;48.20;;;;;;4982392;28;20409;-81
2021/12/09 10:32:28;;;;;;;10.82;6.22;;;5.70;48.00;;;;;;4978579;28;20038;-81
2021/12/09 10:34:54;;;;;;;10.02;5.90;;;5.70;47.90;;;;;;4979043;28;20065;-79
2021/12/09 10:37:22;;;;;;;9.50;5.65;;;5.60;47.70;;;;;;4962633;28;20190;-80
2021/12/09 10:39:53;;;;;;;11.00;5.85;;;5.50;47.80;;;;;;4963848;28;20146;-81
2021/12/09 10:42:19;;;;;;;11.32;6.47;;;5.40;47.80;;;;;;4964415;28;20077;-81
2021/12/09 10:44:47;;;;;;;10.88;6.40;;;5.10;47.90;;;;;;4964048;28;20030;-81
2021/12/09 10:47:24;;;;;;;11.57;6.35;;;5.30;47.60;;;;;;4964391;28;20031;-80
2021/12/09 10:50:07;;;;;;;9.68;5.70;;;5.10;47.70;;;;;;4962484;28;20054;-80
2021/12/09 10:52:46;;;;;;;9.85;5.97;;;5.10;47.60;;;;;;4965983;28;20046;-81
2021/12/09 10:55:21;;;;;;;9.55;5.70;;;4.90;47.60;;;;;;4963494;28;20035;-82
2021/12/09 10:58:12;;;;;;;13.30;6.40;;;4.90;47.70;;;;;;4963839;28;20030;-80
2021/12/09 11:00:52;;;;;;;11.00;6.20;;;4.90;47.60;;;;;;4964068;28;20034;-79
2021/12/09 11:03:29;;;;;;;10.68;6.47;;;5.00;47.10;;;;;;4965375;28;20058;-82
2021/12/09 11:06:07;;;;;;;9.98;6.22;;;4.80;47.40;;;;;;4966216;28;20039;-80
2021/12/09 11:08:43;;;;;;;10.73;6.70;;;4.60;47.40;;;;;;4966159;28;20086;-82
2021/12/09 11:11:15;;;;;;;8.75;5.43;;;4.60;47.50;;;;;;4965005;28;20125;-81
2021/12/09 11:13:58;;;;;;;9.35;6.35;;;4.60;47.30;;;;;;4960910;28;20540;-80
2021/12/09 11:16:33;;;;;;;9.77;5.43;;;4.60;47.50;;;;;;4978768;28;20038;-77
2021/12/09 11:19:10;;;;;;;8.07;5.53;;;4.60;47.40;;;;;;4963201;28;20090;-89
2021/12/09 11:21:44;;;;;;;7.68;4.93;;;4.50;47.20;;;;;;4962337;28;20030;-82
2021/12/09 11:24:13;;;;;;;7.90;5.38;;;4.50;47.50;;;;;;4961998;28;20035;-80
2021/12/09 11:26:58;;;;;;;9.68;5.78;;;4.40;47.30;;;;;;4976060;28;20390;-84
2021/12/09 11:29:31;;;;;;;9.43;6.20;;;4.50;47.20;;;;;;4961992;28;20046;-84
2021/12/09 11:32:16;;;;;;;9.55;6.03;;;4.30;47.40;;;;;;4957935;28;20054;-81
2021/12/09 11:34:47;;;;;;;9.57;5.97;;;4.50;47.20;;;;;;4962761;28;20031;-82
2021/12/09 11:39:57;;;;;;;10.30;5.40;;;4.60;47.10;;;;;;4963281;28;20460;-81
2021/12/09 11:42:31;;;;;;;8.32;5.05;;;4.50;46.90;;;;;;4962868;28;20537;-80
2021/12/09 11:44:57;;;;;;;8.07;4.72;;;4.40;47.00;;;;;;4961240;28;20054;-82
2021/12/09 11:47:23;;;;;;;6.28;4.22;;;4.10;47.30;;;;;;4961472;28;20035;-81
2021/12/09 11:49:51;;;;;;;9.15;5.10;;;4.20;47.30;;;;;;4977880;28;20130;-79
2021/12/09 11:52:19;;;;;;;7.07;4.53;;;4.20;47.40;;;;;;4963678;28;20433;-80
2021/12/09 11:54:55;;;;;;;7.47;4.97;;;4.20;47.40;;;;;;4959956;28;20031;-77
2021/12/09 12:06:52;;;;;;;7.90;4.68;;;4.30;47.10;;;;;;4963407;28;20042;-82
2021/12/09 12:13:24;;;;;;;7.53;4.45;;;4.00;47.20;;;;;;4963503;28;20039;-81
2021/12/09 12:26:38;;;;;;;7.88;4.82;;;3.60;47.30;;;;;;4964746;28;20066;-88
2021/12/09 12:35:09;;;;;;;10.98;5.18;;;3.60;47.30;;;;;;4985016;28;20111;-81
2021/12/09 12:37:54;;;;;;;6.85;4.28;;;3.60;47.10;;;;;;4985637;28;20049;-85
2021/12/09 12:40:33;;;;;;;7.18;4.13;;;3.80;47.70;;;;;;4988287;28;20161;-84
2021/12/09 12:43:08;;;;;;;7.93;4.20;;;3.90;49.10;;;;;;4986279;28;20405;-78
2021/12/09 12:46:09;;;;;;;7.20;4.70;;;3.90;48.90;;;;;;4967817;28;20392;-82
2021/12/09 12:54:19;;;;;;;9.35;4.80;;;4.10;50.60;;;;;;4985857;28;20030;-79
2021/12/09 12:56:56;;;;;;;8.13;4.13;;;4.30;58.40;;;;;;4985680;28;20026;-80
2021/12/09 13:00:10;;;;;;;8.30;4.70;;;4.40;58.10;;;;;;4971018;28;20038;-79
2021/12/09 13:03:17;;;;;;;10.68;4.72;;;4.40;56.20;;;;;;4947201;29;20047;-77
2021/12/09 13:06:08;;;;;;;7.82;4.60;;;4.40;54.30;;;;;;4949036;28;20039;-79
2021/12/09 13:09:07;;;;;;;9.68;4.45;;;4.40;52.90;;;;;;4984191;28;20061;-79
2021/12/09 13:11:50;;;;;;;7.25;4.80;;;4.50;51.80;;;;;;4984662;28;20034;-77
2021/12/09 13:14:30;;;;;;;7.07;4.80;;;4.50;51.10;;;;;;4984095;28;20425;-77
2021/12/09 13:19:37;;;;;;;8.25;5.18;;;4.40;50.10;;;;;;4984166;28;20035;-77
2021/12/09 13:22:12;;;;;;;9.10;5.05;;;4.50;49.70;;;;;;4984717;28;20512;-77
2021/12/09 13:25:03;;;;;;;8.25;4.90;;;4.50;49.50;;;;;;4985574;28;20056;-78
2021/12/09 13:35:42;;;;;;;8.75;5.25;;;4.50;48.60;;;;;;4984228;28;20493;-79
2021/12/09 13:49:09;;;;;;;8.25;4.75;;;4.40;48.20;;;;;;4985006;28;20485;-79
2021/12/09 13:51:55;;;;;;;8.98;5.47;;;4.40;48.20;;;;;;4986527;28;20033;-78
2021/12/09 13:54:33;;;;;;;8.80;4.55;;;4.40;48.10;;;;;;4986807;28;20123;-80
2021/12/09 13:57:04;;;;;;;9.00;5.00;;;4.40;48.00;;;;;;4987812;28;20030;-82
2021/12/09 13:59:35;;;;;;;8.35;4.82;;;4.40;48.00;;;;;;4987643;28;20033;-81
2021/12/09 14:02:20;;;;;;;8.32;5.32;;;4.40;49.20;;;;;;4985644;28;20038;-80
2021/12/09 14:04:46;;;;;;;12.15;5.40;;;4.30;52.60;;;;;;4983799;28;20038;-81
2021/12/09 14:07:22;;;;;;;9.80;5.15;;;4.30;53.90;;;;;;4985186;28;20045;-80
2021/12/09 14:10:04;;;;;;;9.65;5.55;;;4.30;54.90;;;;;;4967380;28;20030;-79
2021/12/09 14:12:36;;;;;;;9.85;6.18;;;4.40;54.00;;;;;;4986377;28;20037;-79
2021/12/09 14:15:14;;;;;;;11.20;6.47;;;4.40;52.90;;;;;;4984754;28;20497;-78